Terminal Aerodrome Forecast
Issued by NWS Austin/San Antonio, TX

Home | Current Version | Previous Version | Text Only | Print | Product List | Glossary On
Versions: 1 2 3 4 5 6 7 8 9 10 11 12 13 14 15 16 17 18 19 20 21 22 23 24 25 26
000
FTUS44 KEWX 040538
TAFSAT
TAF
KSAT 040538Z 0406/0512 15010KT P6SM BKN250
     FM040700 15005KT P6SM BKN012
     FM040900 15005KT P6SM BKN008
     FM041500 16010KT P6SM BKN015
     FM041700 15012KT P6SM BKN050
     FM050700 15010KT P6SM BKN015=

USA.gov is the U.S. government's official web portal to all federal, state and local government web resources and services.